sensor_id;sensor_type;location;lat;lon;timestamp;temperature;humidity
36652;DHT22;53334;51.976;20.144;2023-08-08T00:01:45;25.50;56.90
36652;DHT22;53334;51.976;20.144;2023-08-08T00:04:18;25.50;56.80
36652;DHT22;53334;51.976;20.144;2023-08-08T00:06:52;25.50;56.70
36652;DHT22;53334;51.976;20.144;2023-08-08T00:09:25;25.50;56.70
36652;DHT22;53334;51.976;20.144;2023-08-08T00:11:59;25.40;56.60
36652;DHT22;53334;51.976;20.144;2023-08-08T00:14:35;25.50;56.70
36652;DHT22;53334;51.976;20.144;2023-08-08T00:17:10;25.40;57.20
36652;DHT22;53334;51.976;20.144;2023-08-08T00:19:43;25.40;56.70
36652;DHT22;53334;51.976;20.144;2023-08-08T00:22:16;25.40;56.70
36652;DHT22;53334;51.976;20.144;2023-08-08T00:24:50;25.40;56.70
36652;DHT22;53334;51.976;20.144;2023-08-08T00:27:23;25.40;56.70
36652;DHT22;53334;51.976;20.144;2023-08-08T00:29:58;25.40;56.70
36652;DHT22;53334;51.976;20.144;2023-08-08T00:32:32;25.50;56.80
36652;DHT22;53334;51.976;20.144;2023-08-08T00:35:05;25.40;56.70
36652;DHT22;53334;51.976;20.144;2023-08-08T00:37:39;25.40;56.70
36652;DHT22;53334;51.976;20.144;2023-08-08T00:40:12;25.40;56.70
36652;DHT22;53334;51.976;20.144;2023-08-08T00:42:46;25.40;56.70
36652;DHT22;53334;51.976;20.144;2023-08-08T00:45:20;25.50;56.70
36652;DHT22;53334;51.976;20.144;2023-08-08T00:47:54;25.40;56.60
36652;DHT22;53334;51.976;20.144;2023-08-08T00:50:27;25.40;56.60
36652;DHT22;53334;51.976;20.144;2023-08-08T00:53:01;25.40;56.70
36652;DHT22;53334;51.976;20.144;2023-08-08T00:55:34;25.40;56.70
36652;DHT22;53334;51.976;20.144;2023-08-08T00:58:08;25.40;56.80
36652;DHT22;53334;51.976;20.144;2023-08-08T01:00:42;25.50;56.90
36652;DHT22;53334;51.976;20.144;2023-08-08T01:03:16;25.40;56.70
36652;DHT22;53334;51.976;20.144;2023-08-08T01:05:57;25.40;56.70
36652;DHT22;53334;51.976;20.144;2023-08-08T01:08:44;25.40;56.80
36652;DHT22;53334;51.976;20.144;2023-08-08T01:11:18;25.40;56.70
36652;DHT22;53334;51.976;20.144;2023-08-08T01:13:53;25.40;56.70
36652;DHT22;53334;51.976;20.144;2023-08-08T01:16:29;25.40;56.70
36652;DHT22;53334;51.976;20.144;2023-08-08T01:19:04;25.40;56.70
36652;DHT22;53334;51.976;20.144;2023-08-08T01:21:41;25.40;56.80
36652;DHT22;53334;51.976;20.144;2023-08-08T01:24:20;25.40;56.70
36652;DHT22;53334;51.976;20.144;2023-08-08T01:26:53;25.40;56.70
36652;DHT22;53334;51.976;20.144;2023-08-08T01:29:27;25.40;56.70
36652;DHT22;53334;51.976;20.144;2023-08-08T01:32:01;25.40;56.70
36652;DHT22;53334;51.976;20.144;2023-08-08T01:34:34;25.40;56.80
36652;DHT22;53334;51.976;20.144;2023-08-08T01:37:13;25.40;56.90
36652;DHT22;53334;51.976;20.144;2023-08-08T01:39:50;25.40;56.90
36652;DHT22;53334;51.976;20.144;2023-08-08T01:42:25;25.40;56.90
36652;DHT22;53334;51.976;20.144;2023-08-08T01:44:59;25.40;56.90
36652;DHT22;53334;51.976;20.144;2023-08-08T01:47:35;25.40;56.80
36652;DHT22;53334;51.976;20.144;2023-08-08T01:50:09;25.40;56.90
36652;DHT22;53334;51.976;20.144;2023-08-08T01:52:43;25.40;56.90
36652;DHT22;53334;51.976;20.144;2023-08-08T01:55:18;25.40;56.90
36652;DHT22;53334;51.976;20.144;2023-08-08T01:57:51;25.40;57.00
36652;DHT22;53334;51.976;20.144;2023-08-08T02:00:24;25.40;57.00
36652;DHT22;53334;51.976;20.144;2023-08-08T02:02:58;25.40;57.00
36652;DHT22;53334;51.976;20.144;2023-08-08T02:05:33;25.40;57.00
36652;DHT22;53334;51.976;20.144;2023-08-08T02:08:06;25.40;56.90
36652;DHT22;53334;51.976;20.144;2023-08-08T02:10:41;25.40;57.00
36652;DHT22;53334;51.976;20.144;2023-08-08T02:13:14;25.40;57.10
36652;DHT22;53334;51.976;20.144;2023-08-08T02:15:47;25.40;57.20
36652;DHT22;53334;51.976;20.144;2023-08-08T02:18:21;25.40;57.20
36652;DHT22;53334;51.976;20.144;2023-08-08T02:20:54;25.40;57.30
36652;DHT22;53334;51.976;20.144;2023-08-08T02:23:28;25.40;57.40
36652;DHT22;53334;51.976;20.144;2023-08-08T02:26:02;25.40;57.40
36652;DHT22;53334;51.976;20.144;2023-08-08T02:28:36;25.40;57.50
36652;DHT22;53334;51.976;20.144;2023-08-08T02:31:09;25.40;58.00
36652;DHT22;53334;51.976;20.144;2023-08-08T02:33:42;25.40;57.50
36652;DHT22;53334;51.976;20.144;2023-08-08T02:36:16;25.40;57.50
36652;DHT22;53334;51.976;20.144;2023-08-08T02:38:49;25.40;57.40
36652;DHT22;53334;51.976;20.144;2023-08-08T02:41:26;25.40;57.40
36652;DHT22;53334;51.976;20.144;2023-08-08T02:44:00;25.40;57.40
36652;DHT22;53334;51.976;20.144;2023-08-08T02:46:33;25.40;57.50
36652;DHT22;53334;51.976;20.144;2023-08-08T02:49:09;25.40;57.50
36652;DHT22;53334;51.976;20.144;2023-08-08T02:51:43;25.40;57.40
36652;DHT22;53334;51.976;20.144;2023-08-08T02:54:16;25.40;57.40
36652;DHT22;53334;51.976;20.144;2023-08-08T02:56:51;25.40;57.40
36652;DHT22;53334;51.976;20.144;2023-08-08T02:59:24;25.40;57.50
36652;DHT22;53334;51.976;20.144;2023-08-08T03:01:58;25.40;57.40
36652;DHT22;53334;51.976;20.144;2023-08-08T03:04:32;25.40;57.40
36652;DHT22;53334;51.976;20.144;2023-08-08T03:07:05;25.40;57.50
36652;DHT22;53334;51.976;20.144;2023-08-08T03:09:41;25.40;57.40
36652;DHT22;53334;51.976;20.144;2023-08-08T03:12:17;25.40;57.40
36652;DHT22;53334;51.976;20.144;2023-08-08T03:14:51;25.40;57.30
36652;DHT22;53334;51.976;20.144;2023-08-08T03:17:24;25.40;57.40
36652;DHT22;53334;51.976;20.144;2023-08-08T03:19:58;25.40;57.30
36652;DHT22;53334;51.976;20.144;2023-08-08T03:22:31;25.40;57.30
36652;DHT22;53334;51.976;20.144;2023-08-08T03:25:06;25.40;57.20
36652;DHT22;53334;51.976;20.144;2023-08-08T03:27:42;25.40;57.20
36652;DHT22;53334;51.976;20.144;2023-08-08T03:30:18;25.40;57.20
36652;DHT22;53334;51.976;20.144;2023-08-08T03:32:52;25.40;57.20
36652;DHT22;53334;51.976;20.144;2023-08-08T03:35:26;25.40;57.20
36652;DHT22;53334;51.976;20.144;2023-08-08T03:37:59;25.40;57.20
36652;DHT22;53334;51.976;20.144;2023-08-08T03:40:32;25.40;57.20
36652;DHT22;53334;51.976;20.144;2023-08-08T03:43:07;25.40;57.20
36652;DHT22;53334;51.976;20.144;2023-08-08T03:45:41;25.40;57.20
36652;DHT22;53334;51.976;20.144;2023-08-08T03:48:14;25.40;57.20
36652;DHT22;53334;51.976;20.144;2023-08-08T03:50:47;25.40;57.30
36652;DHT22;53334;51.976;20.144;2023-08-08T03:53:21;25.40;57.80
36652;DHT22;53334;51.976;20.144;2023-08-08T03:55:54;25.40;57.20
36652;DHT22;53334;51.976;20.144;2023-08-08T03:58:29;25.40;57.20
36652;DHT22;53334;51.976;20.144;2023-08-08T04:01:02;25.40;57.20
36652;DHT22;53334;51.976;20.144;2023-08-08T04:03:37;25.40;57.20
36652;DHT22;53334;51.976;20.144;2023-08-08T04:06:10;25.40;57.20
36652;DHT22;53334;51.976;20.144;2023-08-08T04:08:44;25.40;57.20
36652;DHT22;53334;51.976;20.144;2023-08-08T04:11:17;25.40;57.20
36652;DHT22;53334;51.976;20.144;2023-08-08T04:13:52;25.40;57.30
36652;DHT22;53334;51.976;20.144;2023-08-08T04:16:25;25.40;57.30
36652;DHT22;53334;51.976;20.144;2023-08-08T04:18:59;25.40;57.30
36652;DHT22;53334;51.976;20.144;2023-08-08T04:21:35;25.40;57.30
36652;DHT22;53334;51.976;20.144;2023-08-08T04:24:08;25.40;57.30
36652;DHT22;53334;51.976;20.144;2023-08-08T04:26:41;25.40;57.30
36652;DHT22;53334;51.976;20.144;2023-08-08T04:29:16;25.40;57.30
36652;DHT22;53334;51.976;20.144;2023-08-08T04:31:49;25.40;57.30
36652;DHT22;53334;51.976;20.144;2023-08-08T04:34:23;25.40;57.30
36652;DHT22;53334;51.976;20.144;2023-08-08T04:36:56;25.40;57.40
36652;DHT22;53334;51.976;20.144;2023-08-08T04:39:29;25.40;57.30
36652;DHT22;53334;51.976;20.144;2023-08-08T04:42:04;25.40;57.40
36652;DHT22;53334;51.976;20.144;2023-08-08T04:44:38;25.40;57.30
36652;DHT22;53334;51.976;20.144;2023-08-08T04:47:11;25.40;57.30
36652;DHT22;53334;51.976;20.144;2023-08-08T04:49:45;25.40;57.30
36652;DHT22;53334;51.976;20.144;2023-08-08T04:52:18;25.40;57.30
36652;DHT22;53334;51.976;20.144;2023-08-08T04:54:51;25.40;57.40
36652;DHT22;53334;51.976;20.144;2023-08-08T04:57:25;25.40;57.40
36652;DHT22;53334;51.976;20.144;2023-08-08T04:59:59;25.40;57.50
36652;DHT22;53334;51.976;20.144;2023-08-08T05:02:37;25.40;57.50
36652;DHT22;53334;51.976;20.144;2023-08-08T05:05:11;25.40;57.50
36652;DHT22;53334;51.976;20.144;2023-08-08T05:07:45;25.40;57.40
36652;DHT22;53334;51.976;20.144;2023-08-08T05:10:19;25.40;57.40
36652;DHT22;53334;51.976;20.144;2023-08-08T05:12:52;25.40;57.40
36652;DHT22;53334;51.976;20.144;2023-08-08T05:15:26;25.40;57.40
36652;DHT22;53334;51.976;20.144;2023-08-08T05:18:00;25.40;57.40
36652;DHT22;53334;51.976;20.144;2023-08-08T05:20:33;25.40;57.40
36652;DHT22;53334;51.976;20.144;2023-08-08T05:23:07;25.40;57.40
36652;DHT22;53334;51.976;20.144;2023-08-08T05:25:40;25.40;57.40
36652;DHT22;53334;51.976;20.144;2023-08-08T05:28:13;25.40;58.00
36652;DHT22;53334;51.976;20.144;2023-08-08T05:30:48;25.40;57.40
36652;DHT22;53334;51.976;20.144;2023-08-08T05:33:21;25.40;57.70
36652;DHT22;53334;51.976;20.144;2023-08-08T05:35:55;25.40;57.90
36652;DHT22;53334;51.976;20.144;2023-08-08T05:38:28;25.40;58.90
36652;DHT22;53334;51.976;20.144;2023-08-08T05:41:01;25.40;59.00
36652;DHT22;53334;51.976;20.144;2023-08-08T05:43:34;25.40;58.70
36652;DHT22;53334;51.976;20.144;2023-08-08T05:46:10;25.40;58.40
36652;DHT22;53334;51.976;20.144;2023-08-08T05:48:43;25.40;58.10
36652;DHT22;53334;51.976;20.144;2023-08-08T05:51:18;25.40;57.80
36652;DHT22;53334;51.976;20.144;2023-08-08T05:53:51;25.40;57.50
36652;DHT22;53334;51.976;20.144;2023-08-08T05:56:24;25.40;57.20
36652;DHT22;53334;51.976;20.144;2023-08-08T05:58:58;25.40;56.70
36652;DHT22;53334;51.976;20.144;2023-08-08T06:01:32;25.40;56.30
36652;DHT22;53334;51.976;20.144;2023-08-08T06:04:06;25.40;56.00
36652;DHT22;53334;51.976;20.144;2023-08-08T06:06:40;25.40;55.80
36652;DHT22;53334;51.976;20.144;2023-08-08T06:09:13;25.40;55.70
36652;DHT22;53334;51.976;20.144;2023-08-08T06:11:46;25.40;55.50
36652;DHT22;53334;51.976;20.144;2023-08-08T06:14:19;25.40;55.40
36652;DHT22;53334;51.976;20.144;2023-08-08T06:16:54;25.50;55.60
36652;DHT22;53334;51.976;20.144;2023-08-08T06:19:27;25.40;55.50
36652;DHT22;53334;51.976;20.144;2023-08-08T06:22:01;25.50;55.40
36652;DHT22;53334;51.976;20.144;2023-08-08T06:24:35;25.50;55.20
36652;DHT22;53334;51.976;20.144;2023-08-08T06:27:08;25.50;54.80
36652;DHT22;53334;51.976;20.144;2023-08-08T06:29:43;25.50;54.60
36652;DHT22;53334;51.976;20.144;2023-08-08T06:32:17;25.50;54.30
36652;DHT22;53334;51.976;20.144;2023-08-08T06:34:51;25.40;54.30
36652;DHT22;53334;51.976;20.144;2023-08-08T06:37:24;25.50;54.60
36652;DHT22;53334;51.976;20.144;2023-08-08T06:39:57;25.50;54.40
36652;DHT22;53334;51.976;20.144;2023-08-08T06:42:30;25.50;54.10
36652;DHT22;53334;51.976;20.144;2023-08-08T06:45:06;25.50;53.80
36652;DHT22;53334;51.976;20.144;2023-08-08T06:47:43;25.50;53.70
36652;DHT22;53334;51.976;20.144;2023-08-08T06:50:17;25.50;53.70
36652;DHT22;53334;51.976;20.144;2023-08-08T06:52:52;25.50;53.60
36652;DHT22;53334;51.976;20.144;2023-08-08T06:55:25;25.50;53.60
36652;DHT22;53334;51.976;20.144;2023-08-08T06:57:59;25.50;53.60
36652;DHT22;53334;51.976;20.144;2023-08-08T07:00:32;25.50;53.50
36652;DHT22;53334;51.976;20.144;2023-08-08T07:03:07;25.50;53.60
36652;DHT22;53334;51.976;20.144;2023-08-08T07:05:40;25.50;53.50
36652;DHT22;53334;51.976;20.144;2023-08-08T07:08:14;25.50;53.30
36652;DHT22;53334;51.976;20.144;2023-08-08T07:10:47;25.50;53.10
36652;DHT22;53334;51.976;20.144;2023-08-08T07:13:20;25.50;53.00
36652;DHT22;53334;51.976;20.144;2023-08-08T07:15:53;25.50;53.00
36652;DHT22;53334;51.976;20.144;2023-08-08T07:18:28;25.40;52.90
36652;DHT22;53334;51.976;20.144;2023-08-08T07:21:02;25.40;53.50
36652;DHT22;53334;51.976;20.144;2023-08-08T07:23:35;25.40;52.90
36652;DHT22;53334;51.976;20.144;2023-08-08T07:26:08;25.40;52.90
36652;DHT22;53334;51.976;20.144;2023-08-08T07:28:42;25.40;53.50
36652;DHT22;53334;51.976;20.144;2023-08-08T07:31:16;25.40;52.80
36652;DHT22;53334;51.976;20.144;2023-08-08T07:33:52;25.40;52.80
36652;DHT22;53334;51.976;20.144;2023-08-08T07:36:26;25.40;52.80
36652;DHT22;53334;51.976;20.144;2023-08-08T07:38:59;25.40;52.80
36652;DHT22;53334;51.976;20.144;2023-08-08T07:41:32;25.40;52.80
36652;DHT22;53334;51.976;20.144;2023-08-08T07:44:07;25.40;52.80
36652;DHT22;53334;51.976;20.144;2023-08-08T07:46:40;25.40;52.80
36652;DHT22;53334;51.976;20.144;2023-08-08T07:49:15;25.40;52.70
36652;DHT22;53334;51.976;20.144;2023-08-08T07:51:49;25.40;52.70
36652;DHT22;53334;51.976;20.144;2023-08-08T07:54:22;25.40;52.70
36652;DHT22;53334;51.976;20.144;2023-08-08T07:56:56;25.40;52.70
36652;DHT22;53334;51.976;20.144;2023-08-08T07:59:29;25.40;52.70
36652;DHT22;53334;51.976;20.144;2023-08-08T08:02:03;25.40;52.70
36652;DHT22;53334;51.976;20.144;2023-08-08T08:04:39;25.40;52.70
36652;DHT22;53334;51.976;20.144;2023-08-08T08:07:12;25.40;52.70
36652;DHT22;53334;51.976;20.144;2023-08-08T08:09:46;25.40;52.70
36652;DHT22;53334;51.976;20.144;2023-08-08T08:12:19;25.40;52.70
36652;DHT22;53334;51.976;20.144;2023-08-08T08:14:53;25.40;52.70
36652;DHT22;53334;51.976;20.144;2023-08-08T08:17:26;25.40;52.70
36652;DHT22;53334;51.976;20.144;2023-08-08T08:20:02;25.40;52.70
36652;DHT22;53334;51.976;20.144;2023-08-08T08:22:38;25.40;52.70
36652;DHT22;53334;51.976;20.144;2023-08-08T08:25:11;25.40;52.70
36652;DHT22;53334;51.976;20.144;2023-08-08T08:27:45;25.40;52.70
36652;DHT22;53334;51.976;20.144;2023-08-08T08:30:18;25.40;52.70
36652;DHT22;53334;51.976;20.144;2023-08-08T08:32:51;25.40;52.70
36652;DHT22;53334;51.976;20.144;2023-08-08T08:35:26;25.40;52.70
36652;DHT22;53334;51.976;20.144;2023-08-08T08:38:00;25.40;52.70
36652;DHT22;53334;51.976;20.144;2023-08-08T08:40:37;25.40;52.70
36652;DHT22;53334;51.976;20.144;2023-08-08T08:43:11;25.40;52.70
36652;DHT22;53334;51.976;20.144;2023-08-08T08:45:51;25.40;52.70
36652;DHT22;53334;51.976;20.144;2023-08-08T08:48:25;25.40;52.60
36652;DHT22;53334;51.976;20.144;2023-08-08T08:51:00;25.40;52.60
36652;DHT22;53334;51.976;20.144;2023-08-08T08:53:35;25.40;52.70
36652;DHT22;53334;51.976;20.144;2023-08-08T08:56:11;25.40;52.60
36652;DHT22;53334;51.976;20.144;2023-08-08T08:58:44;25.40;53.20
36652;DHT22;53334;51.976;20.144;2023-08-08T09:01:18;25.40;52.60
36652;DHT22;53334;51.976;20.144;2023-08-08T09:03:52;25.40;52.60
36652;DHT22;53334;51.976;20.144;2023-08-08T09:06:28;25.40;52.60
36652;DHT22;53334;51.976;20.144;2023-08-08T09:09:01;25.40;52.60
36652;DHT22;53334;51.976;20.144;2023-08-08T09:11:49;25.40;52.60
36652;DHT22;53334;51.976;20.144;2023-08-08T09:14:24;25.40;52.60
36652;DHT22;53334;51.976;20.144;2023-08-08T09:16:59;25.40;52.60
36652;DHT22;53334;51.976;20.144;2023-08-08T09:19:32;25.40;52.60
36652;DHT22;53334;51.976;20.144;2023-08-08T09:22:07;25.40;52.60
36652;DHT22;53334;51.976;20.144;2023-08-08T09:24:41;25.40;52.60
36652;DHT22;53334;51.976;20.144;2023-08-08T09:27:15;25.40;52.60
36652;DHT22;53334;51.976;20.144;2023-08-08T09:29:49;25.40;52.60
36652;DHT22;53334;51.976;20.144;2023-08-08T09:32:22;25.40;52.60
36652;DHT22;53334;51.976;20.144;2023-08-08T09:34:56;25.40;52.60
36652;DHT22;53334;51.976;20.144;2023-08-08T09:37:31;25.40;52.60
36652;DHT22;53334;51.976;20.144;2023-08-08T09:40:05;25.40;52.60
36652;DHT22;53334;51.976;20.144;2023-08-08T09:42:40;25.40;52.50
36652;DHT22;53334;51.976;20.144;2023-08-08T09:45:14;25.40;52.50
36652;DHT22;53334;51.976;20.144;2023-08-08T09:47:49;25.40;52.50
36652;DHT22;53334;51.976;20.144;2023-08-08T09:50:22;25.40;52.50
36652;DHT22;53334;51.976;20.144;2023-08-08T09:52:57;25.40;52.50
36652;DHT22;53334;51.976;20.144;2023-08-08T09:55:32;25.40;52.40
36652;DHT22;53334;51.976;20.144;2023-08-08T09:58:06;25.40;52.40
36652;DHT22;53334;51.976;20.144;2023-08-08T10:00:41;25.40;52.40
36652;DHT22;53334;51.976;20.144;2023-08-08T10:03:14;25.40;52.50
36652;DHT22;53334;51.976;20.144;2023-08-08T10:05:48;25.40;52.50
36652;DHT22;53334;51.976;20.144;2023-08-08T10:08:22;25.40;52.50
36652;DHT22;53334;51.976;20.144;2023-08-08T10:10:56;25.40;52.40
36652;DHT22;53334;51.976;20.144;2023-08-08T10:13:30;25.40;52.40
36652;DHT22;53334;51.976;20.144;2023-08-08T10:16:07;25.40;52.40
36652;DHT22;53334;51.976;20.144;2023-08-08T10:18:44;25.40;52.40
36652;DHT22;53334;51.976;20.144;2023-08-08T10:21:17;25.40;52.40
36652;DHT22;53334;51.976;20.144;2023-08-08T10:24:01;25.40;52.40
36652;DHT22;53334;51.976;20.144;2023-08-08T10:26:53;25.40;52.30
36652;DHT22;53334;51.976;20.144;2023-08-08T10:29:28;25.40;52.30
36652;DHT22;53334;51.976;20.144;2023-08-08T10:32:04;25.40;52.40
36652;DHT22;53334;51.976;20.144;2023-08-08T10:34:39;25.40;52.40
36652;DHT22;53334;51.976;20.144;2023-08-08T10:37:13;25.40;52.40
36652;DHT22;53334;51.976;20.144;2023-08-08T10:39:58;25.40;52.30
36652;DHT22;53334;51.976;20.144;2023-08-08T10:42:36;25.40;52.30
36652;DHT22;53334;51.976;20.144;2023-08-08T10:45:15;25.40;52.30
36652;DHT22;53334;51.976;20.144;2023-08-08T10:47:49;25.40;52.30
36652;DHT22;53334;51.976;20.144;2023-08-08T10:50:23;25.40;52.30
36652;DHT22;53334;51.976;20.144;2023-08-08T10:52:57;25.40;52.30
36652;DHT22;53334;51.976;20.144;2023-08-08T10:55:34;25.40;52.20
36652;DHT22;53334;51.976;20.144;2023-08-08T10:58:09;25.40;52.20
36652;DHT22;53334;51.976;20.144;2023-08-08T11:00:42;25.40;52.20
36652;DHT22;53334;51.976;20.144;2023-08-08T11:03:17;25.40;52.20
36652;DHT22;53334;51.976;20.144;2023-08-08T11:05:50;25.40;52.20
36652;DHT22;53334;51.976;20.144;2023-08-08T11:08:24;25.40;52.10
36652;DHT22;53334;51.976;20.144;2023-08-08T11:10:59;25.40;52.10
36652;DHT22;53334;51.976;20.144;2023-08-08T11:13:33;25.40;52.10
36652;DHT22;53334;51.976;20.144;2023-08-08T11:16:07;25.40;52.10
36652;DHT22;53334;51.976;20.144;2023-08-08T11:18:42;25.40;52.10
36652;DHT22;53334;51.976;20.144;2023-08-08T11:21:15;25.40;52.10
36652;DHT22;53334;51.976;20.144;2023-08-08T11:23:50;25.40;52.10
36652;DHT22;53334;51.976;20.144;2023-08-08T11:26:25;25.40;52.10
36652;DHT22;53334;51.976;20.144;2023-08-08T11:28:59;25.40;52.10
36652;DHT22;53334;51.976;20.144;2023-08-08T11:31:33;25.40;52.10
36652;DHT22;53334;51.976;20.144;2023-08-08T11:34:07;25.40;52.00
36652;DHT22;53334;51.976;20.144;2023-08-08T11:36:42;25.40;52.00
36652;DHT22;53334;51.976;20.144;2023-08-08T11:39:15;25.40;52.00
36652;DHT22;53334;51.976;20.144;2023-08-08T11:41:50;25.40;52.00
36652;DHT22;53334;51.976;20.144;2023-08-08T11:44:23;25.40;52.00
36652;DHT22;53334;51.976;20.144;2023-08-08T11:46:59;25.40;52.00
36652;DHT22;53334;51.976;20.144;2023-08-08T11:49:40;25.40;52.00
36652;DHT22;53334;51.976;20.144;2023-08-08T11:52:13;25.40;51.90
36652;DHT22;53334;51.976;20.144;2023-08-08T11:54:51;25.40;51.90
36652;DHT22;53334;51.976;20.144;2023-08-08T11:57:26;25.40;51.90
36652;DHT22;53334;51.976;20.144;2023-08-08T11:59:59;25.40;52.00
36652;DHT22;53334;51.976;20.144;2023-08-08T12:02:44;25.40;51.90
36652;DHT22;53334;51.976;20.144;2023-08-08T12:05:21;25.40;52.00
36652;DHT22;53334;51.976;20.144;2023-08-08T12:07:55;25.40;52.00
36652;DHT22;53334;51.976;20.144;2023-08-08T12:10:28;25.40;51.90
36652;DHT22;53334;51.976;20.144;2023-08-08T12:13:03;25.40;51.90
36652;DHT22;53334;51.976;20.144;2023-08-08T12:15:39;25.40;51.90
36652;DHT22;53334;51.976;20.144;2023-08-08T12:18:12;25.40;51.90
36652;DHT22;53334;51.976;20.144;2023-08-08T12:20:48;25.40;51.90
36652;DHT22;53334;51.976;20.144;2023-08-08T12:23:22;25.40;52.40
36652;DHT22;53334;51.976;20.144;2023-08-08T12:25:55;25.40;51.80
36652;DHT22;53334;51.976;20.144;2023-08-08T12:28:31;25.40;51.80
36652;DHT22;53334;51.976;20.144;2023-08-08T12:31:05;25.40;51.80
36652;DHT22;53334;51.976;20.144;2023-08-08T12:33:38;25.40;51.80
36652;DHT22;53334;51.976;20.144;2023-08-08T12:36:12;25.40;51.80
36652;DHT22;53334;51.976;20.144;2023-08-08T12:38:45;25.40;51.80
36652;DHT22;53334;51.976;20.144;2023-08-08T12:41:18;25.40;51.80
36652;DHT22;53334;51.976;20.144;2023-08-08T12:43:53;25.40;51.80
36652;DHT22;53334;51.976;20.144;2023-08-08T12:46:26;25.40;47.70
36652;DHT22;53334;51.976;20.144;2023-08-08T12:49:00;25.40;43.70
36652;DHT22;53334;51.976;20.144;2023-08-08T12:51:33;25.30;42.10
36652;DHT22;53334;51.976;20.144;2023-08-08T12:54:08;25.30;42.20
36652;DHT22;53334;51.976;20.144;2023-08-08T12:56:41;25.30;43.20
36652;DHT22;53334;51.976;20.144;2023-08-08T12:59:16;25.20;42.40
36652;DHT22;53334;51.976;20.144;2023-08-08T13:01:49;25.20;42.30
36652;DHT22;53334;51.976;20.144;2023-08-08T13:04:22;25.10;42.50
36652;DHT22;53334;51.976;20.144;2023-08-08T13:06:55;25.10;42.70
36652;DHT22;53334;51.976;20.144;2023-08-08T13:09:29;25.10;42.90
36652;DHT22;53334;51.976;20.144;2023-08-08T13:12:02;25.10;43.10
36652;DHT22;53334;51.976;20.144;2023-08-08T13:14:38;25.10;43.40
36652;DHT22;53334;51.976;20.144;2023-08-08T13:17:11;25.10;43.30
36652;DHT22;53334;51.976;20.144;2023-08-08T13:19:45;25.00;43.20
36652;DHT22;53334;51.976;20.144;2023-08-08T13:22:18;25.00;43.80
36652;DHT22;53334;51.976;20.144;2023-08-08T13:24:51;25.00;43.30
36652;DHT22;53334;51.976;20.144;2023-08-08T13:27:24;25.00;43.50
36652;DHT22;53334;51.976;20.144;2023-08-08T13:29:59;25.00;43.50
36652;DHT22;53334;51.976;20.144;2023-08-08T13:32:33;24.90;43.40
36652;DHT22;53334;51.976;20.144;2023-08-08T13:35:06;24.90;43.50
36652;DHT22;53334;51.976;20.144;2023-08-08T13:37:40;24.90;43.60
36652;DHT22;53334;51.976;20.144;2023-08-08T13:40:13;24.90;43.60
36652;DHT22;53334;51.976;20.144;2023-08-08T13:42:46;24.80;43.80
36652;DHT22;53334;51.976;20.144;2023-08-08T13:45:23;24.90;43.90
36652;DHT22;53334;51.976;20.144;2023-08-08T13:47:57;24.80;43.80
36652;DHT22;53334;51.976;20.144;2023-08-08T13:50:30;24.80;43.90
36652;DHT22;53334;51.976;20.144;2023-08-08T13:53:04;24.80;44.10
36652;DHT22;53334;51.976;20.144;2023-08-08T13:55:37;24.80;44.00
36652;DHT22;53334;51.976;20.144;2023-08-08T13:58:12;24.80;44.10
36652;DHT22;53334;51.976;20.144;2023-08-08T14:00:47;24.80;44.20
36652;DHT22;53334;51.976;20.144;2023-08-08T14:03:20;24.80;44.20
36652;DHT22;53334;51.976;20.144;2023-08-08T14:05:54;24.80;44.10
36652;DHT22;53334;51.976;20.144;2023-08-08T14:08:27;24.70;44.10
36652;DHT22;53334;51.976;20.144;2023-08-08T14:11:01;24.70;44.20
36652;DHT22;53334;51.976;20.144;2023-08-08T14:13:34;24.70;44.40
36652;DHT22;53334;51.976;20.144;2023-08-08T14:16:10;24.70;44.40
36652;DHT22;53334;51.976;20.144;2023-08-08T14:18:44;24.70;44.50
36652;DHT22;53334;51.976;20.144;2023-08-08T14:21:17;24.70;44.50
36652;DHT22;53334;51.976;20.144;2023-08-08T14:23:50;24.70;44.60
36652;DHT22;53334;51.976;20.144;2023-08-08T14:26:24;24.70;44.80
36652;DHT22;53334;51.976;20.144;2023-08-08T14:28:58;24.60;44.70
36652;DHT22;53334;51.976;20.144;2023-08-08T14:31:34;24.60;44.90
36652;DHT22;53334;51.976;20.144;2023-08-08T14:34:29;24.60;45.00
36652;DHT22;53334;51.976;20.144;2023-08-08T14:37:03;24.60;45.10
36652;DHT22;53334;51.976;20.144;2023-08-08T14:39:37;24.60;45.10
36652;DHT22;53334;51.976;20.144;2023-08-08T14:42:11;24.60;45.30
36652;DHT22;53334;51.976;20.144;2023-08-08T14:44:44;24.60;46.00
36652;DHT22;53334;51.976;20.144;2023-08-08T14:47:19;24.60;45.40
36652;DHT22;53334;51.976;20.144;2023-08-08T14:49:52;24.60;45.50
36652;DHT22;53334;51.976;20.144;2023-08-08T14:52:25;24.60;45.60
36652;DHT22;53334;51.976;20.144;2023-08-08T14:54:59;24.60;45.60
36652;DHT22;53334;51.976;20.144;2023-08-08T14:57:32;24.60;45.60
36652;DHT22;53334;51.976;20.144;2023-08-08T15:00:07;24.60;45.60
36652;DHT22;53334;51.976;20.144;2023-08-08T15:02:42;24.60;45.50
36652;DHT22;53334;51.976;20.144;2023-08-08T15:05:16;24.60;45.70
36652;DHT22;53334;51.976;20.144;2023-08-08T15:07:49;24.60;45.70
36652;DHT22;53334;51.976;20.144;2023-08-08T15:10:22;24.60;45.70
36652;DHT22;53334;51.976;20.144;2023-08-08T15:12:56;24.60;45.70
36652;DHT22;53334;51.976;20.144;2023-08-08T15:15:29;24.60;45.60
36652;DHT22;53334;51.976;20.144;2023-08-08T15:18:04;24.60;45.60
36652;DHT22;53334;51.976;20.144;2023-08-08T15:20:37;24.60;45.60
36652;DHT22;53334;51.976;20.144;2023-08-08T15:23:11;24.60;45.70
36652;DHT22;53334;51.976;20.144;2023-08-08T15:25:45;24.50;45.70
36652;DHT22;53334;51.976;20.144;2023-08-08T15:28:18;24.50;45.70
36652;DHT22;53334;51.976;20.144;2023-08-08T15:30:52;24.50;45.70
36652;DHT22;53334;51.976;20.144;2023-08-08T15:33:27;24.50;45.60
36652;DHT22;53334;51.976;20.144;2023-08-08T15:36:00;24.50;45.80
36652;DHT22;53334;51.976;20.144;2023-08-08T15:38:33;24.50;46.00
36652;DHT22;53334;51.976;20.144;2023-08-08T15:41:07;24.50;46.30
36652;DHT22;53334;51.976;20.144;2023-08-08T15:43:40;24.60;46.60
36652;DHT22;53334;51.976;20.144;2023-08-08T15:46:13;24.60;46.90
36652;DHT22;53334;51.976;20.144;2023-08-08T15:48:48;24.60;47.30
36652;DHT22;53334;51.976;20.144;2023-08-08T15:51:21;24.60;47.50
36652;DHT22;53334;51.976;20.144;2023-08-08T15:53:54;24.70;47.90
36652;DHT22;53334;51.976;20.144;2023-08-08T15:56:28;24.70;48.00
36652;DHT22;53334;51.976;20.144;2023-08-08T15:59:01;24.70;48.20